sensor_id;sensor_type;location;lat;lon;timestamp;temperature;humidity
11140;DHT22;5624;49.388;11.350;2023-05-29T00:00:17;13.90;56.20
11140;DHT22;5624;49.388;11.350;2023-05-29T00:02:43;13.80;56.70
11140;DHT22;5624;49.388;11.350;2023-05-29T00:05:10;13.80;56.60
11140;DHT22;5624;49.388;11.350;2023-05-29T00:07:37;13.80;56.50
11140;DHT22;5624;49.388;11.350;2023-05-29T00:10:04;13.80;57.00
11140;DHT22;5624;49.388;11.350;2023-05-29T00:12:30;13.70;56.80
11140;DHT22;5624;49.388;11.350;2023-05-29T00:14:57;13.70;56.90
11140;DHT22;5624;49.388;11.350;2023-05-29T00:17:23;13.70;56.50
11140;DHT22;5624;49.388;11.350;2023-05-29T00:19:49;13.70;56.50
11140;DHT22;5624;49.388;11.350;2023-05-29T00:22:15;13.70;56.40
11140;DHT22;5624;49.388;11.350;2023-05-29T00:24:40;13.80;56.20
11140;DHT22;5624;49.388;11.350;2023-05-29T00:27:06;13.70;56.60
11140;DHT22;5624;49.388;11.350;2023-05-29T00:29:32;13.70;56.40
11140;DHT22;5624;49.388;11.350;2023-05-29T00:31:57;13.70;56.20
11140;DHT22;5624;49.388;11.350;2023-05-29T00:34:23;13.70;56.40
11140;DHT22;5624;49.388;11.350;2023-05-29T00:36:49;13.70;56.60
11140;DHT22;5624;49.388;11.350;2023-05-29T00:39:14;13.60;56.80
11140;DHT22;5624;49.388;11.350;2023-05-29T00:41:40;13.50;56.90
11140;DHT22;5624;49.388;11.350;2023-05-29T00:44:06;13.50;57.10
11140;DHT22;5624;49.388;11.350;2023-05-29T00:46:32;13.50;56.80
11140;DHT22;5624;49.388;11.350;2023-05-29T00:48:59;13.60;56.50
11140;DHT22;5624;49.388;11.350;2023-05-29T00:51:26;13.70;55.80
11140;DHT22;5624;49.388;11.350;2023-05-29T00:53:53;13.70;55.60
11140;DHT22;5624;49.388;11.350;2023-05-29T00:56:19;13.80;55.10
11140;DHT22;5624;49.388;11.350;2023-05-29T00:58:50;13.80;55.00
11140;DHT22;5624;49.388;11.350;2023-05-29T01:01:18;13.80;55.20
11140;DHT22;5624;49.388;11.350;2023-05-29T01:03:44;13.70;55.20
11140;DHT22;5624;49.388;11.350;2023-05-29T01:06:11;13.70;55.30
11140;DHT22;5624;49.388;11.350;2023-05-29T01:08:36;13.70;55.40
11140;DHT22;5624;49.388;11.350;2023-05-29T01:11:18;13.60;55.50
11140;DHT22;5624;49.388;11.350;2023-05-29T01:13:47;13.60;55.40
11140;DHT22;5624;49.388;11.350;2023-05-29T01:16:33;13.50;55.80
11140;DHT22;5624;49.388;11.350;2023-05-29T01:21:59;13.50;55.90
11140;DHT22;5624;49.388;11.350;2023-05-29T01:24:50;13.50;56.10
11140;DHT22;5624;49.388;11.350;2023-05-29T01:27:22;13.40;56.20
11140;DHT22;5624;49.388;11.350;2023-05-29T01:29:51;13.30;56.90
11140;DHT22;5624;49.388;11.350;2023-05-29T01:32:17;13.20;57.30
11140;DHT22;5624;49.388;11.350;2023-05-29T01:34:43;13.00;57.50
11140;DHT22;5624;49.388;11.350;2023-05-29T01:37:09;13.00;57.50
11140;DHT22;5624;49.388;11.350;2023-05-29T01:39:35;13.00;57.80
11140;DHT22;5624;49.388;11.350;2023-05-29T01:42:02;13.00;57.50
11140;DHT22;5624;49.388;11.350;2023-05-29T01:44:28;13.00;57.90
11140;DHT22;5624;49.388;11.350;2023-05-29T01:46:54;12.90;58.00
11140;DHT22;5624;49.388;11.350;2023-05-29T01:49:21;12.80;58.00
11140;DHT22;5624;49.388;11.350;2023-05-29T01:51:48;12.80;58.30
11140;DHT22;5624;49.388;11.350;2023-05-29T01:54:13;12.80;58.10
11140;DHT22;5624;49.388;11.350;2023-05-29T01:56:39;12.70;58.20
11140;DHT22;5624;49.388;11.350;2023-05-29T01:59:06;12.60;58.70
11140;DHT22;5624;49.388;11.350;2023-05-29T02:01:32;12.60;58.80
11140;DHT22;5624;49.388;11.350;2023-05-29T02:03:58;12.50;59.00
11140;DHT22;5624;49.388;11.350;2023-05-29T02:06:23;12.50;59.60
11140;DHT22;5624;49.388;11.350;2023-05-29T02:08:49;12.50;59.30
11140;DHT22;5624;49.388;11.350;2023-05-29T02:11:14;12.40;59.70
11140;DHT22;5624;49.388;11.350;2023-05-29T02:13:41;12.40;59.40
11140;DHT22;5624;49.388;11.350;2023-05-29T02:16:07;12.30;59.90
11140;DHT22;5624;49.388;11.350;2023-05-29T02:18:32;12.40;59.30
11140;DHT22;5624;49.388;11.350;2023-05-29T02:20:59;12.50;59.20
11140;DHT22;5624;49.388;11.350;2023-05-29T02:23:25;12.50;59.30
11140;DHT22;5624;49.388;11.350;2023-05-29T02:25:51;12.40;60.00
11140;DHT22;5624;49.388;11.350;2023-05-29T02:28:16;12.30;60.20
11140;DHT22;5624;49.388;11.350;2023-05-29T02:30:42;12.30;60.00
11140;DHT22;5624;49.388;11.350;2023-05-29T02:33:07;12.30;59.80
11140;DHT22;5624;49.388;11.350;2023-05-29T02:35:33;12.30;59.90
11140;DHT22;5624;49.388;11.350;2023-05-29T02:37:59;12.20;60.20
11140;DHT22;5624;49.388;11.350;2023-05-29T02:40:25;12.20;60.10
11140;DHT22;5624;49.388;11.350;2023-05-29T02:42:50;12.20;60.00
11140;DHT22;5624;49.388;11.350;2023-05-29T02:45:17;12.20;60.10
11140;DHT22;5624;49.388;11.350;2023-05-29T02:47:42;12.30;60.30
11140;DHT22;5624;49.388;11.350;2023-05-29T02:50:08;12.30;60.10
11140;DHT22;5624;49.388;11.350;2023-05-29T02:52:34;12.20;60.50
11140;DHT22;5624;49.388;11.350;2023-05-29T02:55:02;12.10;60.80
11140;DHT22;5624;49.388;11.350;2023-05-29T02:57:28;12.00;60.90
11140;DHT22;5624;49.388;11.350;2023-05-29T02:59:53;12.00;61.00
11140;DHT22;5624;49.388;11.350;2023-05-29T03:02:20;12.00;61.00
11140;DHT22;5624;49.388;11.350;2023-05-29T03:04:46;12.00;61.00
11140;DHT22;5624;49.388;11.350;2023-05-29T03:07:12;12.00;60.70
11140;DHT22;5624;49.388;11.350;2023-05-29T03:09:38;12.10;60.30
11140;DHT22;5624;49.388;11.350;2023-05-29T03:12:04;12.10;60.50
11140;DHT22;5624;49.388;11.350;2023-05-29T03:14:30;12.10;60.40
11140;DHT22;5624;49.388;11.350;2023-05-29T03:17:03;12.00;60.60
11140;DHT22;5624;49.388;11.350;2023-05-29T03:19:29;11.90;61.30
11140;DHT22;5624;49.388;11.350;2023-05-29T03:21:54;11.90;61.40
11140;DHT22;5624;49.388;11.350;2023-05-29T03:24:20;11.70;62.20
11140;DHT22;5624;49.388;11.350;2023-05-29T03:26:46;11.80;61.70
11140;DHT22;5624;49.388;11.350;2023-05-29T03:29:11;11.70;62.40
11140;DHT22;5624;49.388;11.350;2023-05-29T03:31:37;11.70;62.40
11140;DHT22;5624;49.388;11.350;2023-05-29T03:34:03;11.70;62.20
11140;DHT22;5624;49.388;11.350;2023-05-29T03:36:28;11.80;62.20
11140;DHT22;5624;49.388;11.350;2023-05-29T03:38:54;11.80;62.10
11140;DHT22;5624;49.388;11.350;2023-05-29T03:41:19;11.80;62.20
11140;DHT22;5624;49.388;11.350;2023-05-29T03:43:45;11.80;61.90
11140;DHT22;5624;49.388;11.350;2023-05-29T03:46:11;11.80;62.20
11140;DHT22;5624;49.388;11.350;2023-05-29T03:48:37;11.70;62.80
11140;DHT22;5624;49.388;11.350;2023-05-29T03:51:02;11.70;63.10
11140;DHT22;5624;49.388;11.350;2023-05-29T03:53:28;11.60;64.00
11140;DHT22;5624;49.388;11.350;2023-05-29T03:55:54;11.70;63.20
11140;DHT22;5624;49.388;11.350;2023-05-29T03:58:19;11.70;63.60
11140;DHT22;5624;49.388;11.350;2023-05-29T04:00:45;11.80;62.40
11140;DHT22;5624;49.388;11.350;2023-05-29T04:03:11;12.10;61.20
11140;DHT22;5624;49.388;11.350;2023-05-29T04:05:36;12.20;61.60
11140;DHT22;5624;49.388;11.350;2023-05-29T04:08:02;12.30;60.60
11140;DHT22;5624;49.388;11.350;2023-05-29T04:10:29;12.40;60.30
11140;DHT22;5624;49.388;11.350;2023-05-29T04:12:59;12.50;59.50
11140;DHT22;5624;49.388;11.350;2023-05-29T04:15:25;12.70;59.10
11140;DHT22;5624;49.388;11.350;2023-05-29T04:17:51;12.60;59.60
11140;DHT22;5624;49.388;11.350;2023-05-29T04:20:16;12.70;58.70
11140;DHT22;5624;49.388;11.350;2023-05-29T04:22:42;12.80;58.40
11140;DHT22;5624;49.388;11.350;2023-05-29T04:25:08;12.80;58.70
11140;DHT22;5624;49.388;11.350;2023-05-29T04:27:34;12.90;58.00
11140;DHT22;5624;49.388;11.350;2023-05-29T04:30:04;13.00;57.80
11140;DHT22;5624;49.388;11.350;2023-05-29T04:32:30;13.10;57.40
11140;DHT22;5624;49.388;11.350;2023-05-29T04:34:56;13.30;56.90
11140;DHT22;5624;49.388;11.350;2023-05-29T04:37:21;13.40;56.50
11140;DHT22;5624;49.388;11.350;2023-05-29T04:39:55;13.60;56.30
11140;DHT22;5624;49.388;11.350;2023-05-29T04:42:21;13.80;56.60
11140;DHT22;5624;49.388;11.350;2023-05-29T04:44:48;14.00;56.10
11140;DHT22;5624;49.388;11.350;2023-05-29T04:47:14;14.40;54.40
11140;DHT22;5624;49.388;11.350;2023-05-29T04:49:41;14.60;54.70
11140;DHT22;5624;49.388;11.350;2023-05-29T04:52:07;14.70;53.50
11140;DHT22;5624;49.388;11.350;2023-05-29T04:54:33;14.70;53.90
11140;DHT22;5624;49.388;11.350;2023-05-29T04:57:00;14.70;54.50
11140;DHT22;5624;49.388;11.350;2023-05-29T04:59:26;14.90;53.30
11140;DHT22;5624;49.388;11.350;2023-05-29T05:01:51;15.00;53.30
11140;DHT22;5624;49.388;11.350;2023-05-29T05:04:17;15.00;53.00
11140;DHT22;5624;49.388;11.350;2023-05-29T05:06:43;15.20;51.50
11140;DHT22;5624;49.388;11.350;2023-05-29T05:09:09;15.20;51.60
11140;DHT22;5624;49.388;11.350;2023-05-29T05:11:35;15.20;51.90
11140;DHT22;5624;49.388;11.350;2023-05-29T05:14:01;15.40;51.70
11140;DHT22;5624;49.388;11.350;2023-05-29T05:16:26;15.50;51.30
11140;DHT22;5624;49.388;11.350;2023-05-29T05:18:52;15.80;50.50
11140;DHT22;5624;49.388;11.350;2023-05-29T05:21:17;15.90;49.50
11140;DHT22;5624;49.388;11.350;2023-05-29T05:23:43;16.00;49.40
11140;DHT22;5624;49.388;11.350;2023-05-29T05:26:08;16.10;49.50
11140;DHT22;5624;49.388;11.350;2023-05-29T05:28:34;16.10;51.10
11140;DHT22;5624;49.388;11.350;2023-05-29T05:31:01;16.10;50.20
11140;DHT22;5624;49.388;11.350;2023-05-29T05:33:27;16.20;50.10
11140;DHT22;5624;49.388;11.350;2023-05-29T05:35:52;16.30;50.10
11140;DHT22;5624;49.388;11.350;2023-05-29T05:38:18;16.30;49.60
11140;DHT22;5624;49.388;11.350;2023-05-29T05:40:44;16.30;50.30
11140;DHT22;5624;49.388;11.350;2023-05-29T05:43:10;16.40;50.60
11140;DHT22;5624;49.388;11.350;2023-05-29T05:45:36;16.70;48.80
11140;DHT22;5624;49.388;11.350;2023-05-29T05:48:03;16.70;50.10
11140;DHT22;5624;49.388;11.350;2023-05-29T05:50:29;16.80;49.40
11140;DHT22;5624;49.388;11.350;2023-05-29T05:52:54;16.80;48.80
11140;DHT22;5624;49.388;11.350;2023-05-29T05:55:20;17.00;47.90
11140;DHT22;5624;49.388;11.350;2023-05-29T05:57:46;17.00;48.40
11140;DHT22;5624;49.388;11.350;2023-05-29T06:00:12;17.20;45.60
11140;DHT22;5624;49.388;11.350;2023-05-29T06:02:38;17.30;45.40
11140;DHT22;5624;49.388;11.350;2023-05-29T06:05:07;17.50;45.00
11140;DHT22;5624;49.388;11.350;2023-05-29T06:07:32;17.90;44.20
11140;DHT22;5624;49.388;11.350;2023-05-29T06:09:58;18.50;43.50
11140;DHT22;5624;49.388;11.350;2023-05-29T06:12:24;19.40;41.50
11140;DHT22;5624;49.388;11.350;2023-05-29T06:14:50;20.30;39.80
11140;DHT22;5624;49.388;11.350;2023-05-29T06:17:16;21.60;38.10
11140;DHT22;5624;49.388;11.350;2023-05-29T06:19:41;22.60;35.90
11140;DHT22;5624;49.388;11.350;2023-05-29T06:22:07;23.10;34.10
11140;DHT22;5624;49.388;11.350;2023-05-29T06:24:32;23.10;33.90
11140;DHT22;5624;49.388;11.350;2023-05-29T06:26:58;23.30;32.70
11140;DHT22;5624;49.388;11.350;2023-05-29T06:29:24;23.90;33.10
11140;DHT22;5624;49.388;11.350;2023-05-29T06:31:49;24.60;31.90
11140;DHT22;5624;49.388;11.350;2023-05-29T06:34:15;25.10;31.10
11140;DHT22;5624;49.388;11.350;2023-05-29T06:36:40;25.60;30.40
11140;DHT22;5624;49.388;11.350;2023-05-29T06:39:07;26.20;28.80
11140;DHT22;5624;49.388;11.350;2023-05-29T06:41:33;26.60;29.70
11140;DHT22;5624;49.388;11.350;2023-05-29T06:43:58;25.90;28.90
11140;DHT22;5624;49.388;11.350;2023-05-29T06:46:24;25.70;29.30
11140;DHT22;5624;49.388;11.350;2023-05-29T06:48:50;25.20;29.90
11140;DHT22;5624;49.388;11.350;2023-05-29T06:51:17;25.00;30.10
11140;DHT22;5624;49.388;11.350;2023-05-29T06:53:43;25.10;30.90
11140;DHT22;5624;49.388;11.350;2023-05-29T06:56:09;25.00;30.20
11140;DHT22;5624;49.388;11.350;2023-05-29T06:58:34;24.70;29.90
11140;DHT22;5624;49.388;11.350;2023-05-29T07:01:00;24.80;29.90
11140;DHT22;5624;49.388;11.350;2023-05-29T07:03:26;24.80;31.30
11140;DHT22;5624;49.388;11.350;2023-05-29T07:05:53;24.60;30.90
11140;DHT22;5624;49.388;11.350;2023-05-29T07:08:20;24.80;30.90
11140;DHT22;5624;49.388;11.350;2023-05-29T07:10:45;25.10;31.20
11140;DHT22;5624;49.388;11.350;2023-05-29T07:13:17;25.60;30.50
11140;DHT22;5624;49.388;11.350;2023-05-29T07:15:44;25.60;29.00
11140;DHT22;5624;49.388;11.350;2023-05-29T07:18:10;25.10;30.50
11140;DHT22;5624;49.388;11.350;2023-05-29T07:20:36;25.60;32.50
11140;DHT22;5624;49.388;11.350;2023-05-29T07:23:02;25.50;29.70
11140;DHT22;5624;49.388;11.350;2023-05-29T07:25:29;25.40;29.70
11140;DHT22;5624;49.388;11.350;2023-05-29T07:27:55;25.10;29.40
11140;DHT22;5624;49.388;11.350;2023-05-29T07:30:20;24.40;30.00
11140;DHT22;5624;49.388;11.350;2023-05-29T07:32:46;24.70;31.10
11140;DHT22;5624;49.388;11.350;2023-05-29T07:35:12;24.50;32.10
11140;DHT22;5624;49.388;11.350;2023-05-29T07:37:37;24.90;29.50
11140;DHT22;5624;49.388;11.350;2023-05-29T07:40:03;25.50;29.70
11140;DHT22;5624;49.388;11.350;2023-05-29T07:42:33;25.80;29.50
11140;DHT22;5624;49.388;11.350;2023-05-29T07:44:58;26.20;31.30
11140;DHT22;5624;49.388;11.350;2023-05-29T07:47:24;26.10;28.20
11140;DHT22;5624;49.388;11.350;2023-05-29T07:49:50;26.10;28.40
11140;DHT22;5624;49.388;11.350;2023-05-29T07:52:17;26.00;27.90
11140;DHT22;5624;49.388;11.350;2023-05-29T07:54:43;25.90;30.80
11140;DHT22;5624;49.388;11.350;2023-05-29T07:57:08;25.90;28.30
11140;DHT22;5624;49.388;11.350;2023-05-29T07:59:37;25.50;29.50
11140;DHT22;5624;49.388;11.350;2023-05-29T08:02:05;25.40;29.20
11140;DHT22;5624;49.388;11.350;2023-05-29T08:04:31;25.40;28.90
11140;DHT22;5624;49.388;11.350;2023-05-29T08:06:58;25.30;28.20
11140;DHT22;5624;49.388;11.350;2023-05-29T08:09:24;25.50;30.50
11140;DHT22;5624;49.388;11.350;2023-05-29T08:11:50;25.40;27.90
11140;DHT22;5624;49.388;11.350;2023-05-29T08:14:15;24.80;28.10
11140;DHT22;5624;49.388;11.350;2023-05-29T08:16:42;25.20;29.50
11140;DHT22;5624;49.388;11.350;2023-05-29T08:19:07;24.70;28.20
11140;DHT22;5624;49.388;11.350;2023-05-29T08:21:33;24.60;27.60
11140;DHT22;5624;49.388;11.350;2023-05-29T08:23:59;24.60;28.70
11140;DHT22;5624;49.388;11.350;2023-05-29T08:26:26;25.10;28.40
11140;DHT22;5624;49.388;11.350;2023-05-29T08:28:51;25.70;28.10
11140;DHT22;5624;49.388;11.350;2023-05-29T08:31:17;25.40;27.00
11140;DHT22;5624;49.388;11.350;2023-05-29T08:33:43;25.40;27.00
11140;DHT22;5624;49.388;11.350;2023-05-29T08:36:08;25.60;27.00
11140;DHT22;5624;49.388;11.350;2023-05-29T08:38:35;25.60;27.00
11140;DHT22;5624;49.388;11.350;2023-05-29T08:41:01;26.20;26.00
11140;DHT22;5624;49.388;11.350;2023-05-29T08:43:31;26.00;25.20
11140;DHT22;5624;49.388;11.350;2023-05-29T08:46:00;25.90;26.50
11140;DHT22;5624;49.388;11.350;2023-05-29T08:48:28;26.50;30.60
11140;DHT22;5624;49.388;11.350;2023-05-29T08:50:55;26.80;25.40
11140;DHT22;5624;49.388;11.350;2023-05-29T08:53:22;26.60;23.30
11140;DHT22;5624;49.388;11.350;2023-05-29T08:55:48;26.20;24.90
11140;DHT22;5624;49.388;11.350;2023-05-29T08:58:16;26.20;29.50
11140;DHT22;5624;49.388;11.350;2023-05-29T09:00:44;26.20;23.80
11140;DHT22;5624;49.388;11.350;2023-05-29T09:03:11;26.20;24.50
11140;DHT22;5624;49.388;11.350;2023-05-29T09:05:38;25.70;22.20
11140;DHT22;5624;49.388;11.350;2023-05-29T09:08:06;25.00;24.20
11140;DHT22;5624;49.388;11.350;2023-05-29T09:10:32;25.20;24.50
11140;DHT22;5624;49.388;11.350;2023-05-29T09:12:58;25.30;26.10
11140;DHT22;5624;49.388;11.350;2023-05-29T09:15:24;25.60;25.20
11140;DHT22;5624;49.388;11.350;2023-05-29T09:17:57;25.80;25.70
11140;DHT22;5624;49.388;11.350;2023-05-29T09:20:24;26.00;25.60
11140;DHT22;5624;49.388;11.350;2023-05-29T09:23:19;26.10;26.40
11140;DHT22;5624;49.388;11.350;2023-05-29T09:25:51;26.60;25.70
11140;DHT22;5624;49.388;11.350;2023-05-29T09:28:18;26.60;25.20
11140;DHT22;5624;49.388;11.350;2023-05-29T09:30:45;26.30;25.00
11140;DHT22;5624;49.388;11.350;2023-05-29T09:33:13;25.90;26.00
11140;DHT22;5624;49.388;11.350;2023-05-29T09:35:47;26.50;25.70
11140;DHT22;5624;49.388;11.350;2023-05-29T09:38:15;26.10;25.50
11140;DHT22;5624;49.388;11.350;2023-05-29T09:40:41;26.40;25.30
11140;DHT22;5624;49.388;11.350;2023-05-29T09:45:57;26.20;26.10
11140;DHT22;5624;49.388;11.350;2023-05-29T09:48:23;26.10;26.20
11140;DHT22;5624;49.388;11.350;2023-05-29T09:50:49;25.80;25.00
11140;DHT22;5624;49.388;11.350;2023-05-29T09:53:20;26.00;25.50
11140;DHT22;5624;49.388;11.350;2023-05-29T09:55:49;25.60;25.10
11140;DHT22;5624;49.388;11.350;2023-05-29T09:58:17;25.70;25.90
11140;DHT22;5624;49.388;11.350;2023-05-29T10:00:43;25.80;27.80
11140;DHT22;5624;49.388;11.350;2023-05-29T10:03:12;25.80;26.30
11140;DHT22;5624;49.388;11.350;2023-05-29T10:05:42;26.10;29.70
11140;DHT22;5624;49.388;11.350;2023-05-29T10:08:14;26.50;29.20
11140;DHT22;5624;49.388;11.350;2023-05-29T10:10:49;26.80;28.80
11140;DHT22;5624;49.388;11.350;2023-05-29T10:13:20;27.70;26.00
11140;DHT22;5624;49.388;11.350;2023-05-29T10:15:49;28.40;26.10
11140;DHT22;5624;49.388;11.350;2023-05-29T10:18:22;27.60;24.50
11140;DHT22;5624;49.388;11.350;2023-05-29T10:20:53;27.60;24.30
11140;DHT22;5624;49.388;11.350;2023-05-29T10:23:25;27.10;25.50
11140;DHT22;5624;49.388;11.350;2023-05-29T10:25:53;26.50;25.30
11140;DHT22;5624;49.388;11.350;2023-05-29T10:28:20;25.90;26.20
11140;DHT22;5624;49.388;11.350;2023-05-29T10:38:46;26.90;25.80
11140;DHT22;5624;49.388;11.350;2023-05-29T10:43:55;27.50;25.00
11140;DHT22;5624;49.388;11.350;2023-05-29T10:46:21;26.90;25.80
11140;DHT22;5624;49.388;11.350;2023-05-29T10:49:18;25.80;28.00
11140;DHT22;5624;49.388;11.350;2023-05-29T10:51:44;25.80;26.00
11140;DHT22;5624;49.388;11.350;2023-05-29T10:54:11;25.90;26.60
11140;DHT22;5624;49.388;11.350;2023-05-29T10:56:37;26.30;27.00
11140;DHT22;5624;49.388;11.350;2023-05-29T10:59:02;26.50;27.10
11140;DHT22;5624;49.388;11.350;2023-05-29T11:01:29;27.30;29.80
11140;DHT22;5624;49.388;11.350;2023-05-29T11:06:42;25.90;26.10
11140;DHT22;5624;49.388;11.350;2023-05-29T11:09:31;26.00;26.50
11140;DHT22;5624;49.388;11.350;2023-05-29T11:15:00;26.70;28.00
11140;DHT22;5624;49.388;11.350;2023-05-29T11:20:07;26.80;25.80
11140;DHT22;5624;49.388;11.350;2023-05-29T11:25:05;25.90;27.90
11140;DHT22;5624;49.388;11.350;2023-05-29T11:27:32;25.50;29.80
11140;DHT22;5624;49.388;11.350;2023-05-29T11:29:57;25.60;28.70
11140;DHT22;5624;49.388;11.350;2023-05-29T11:32:25;25.70;29.90
11140;DHT22;5624;49.388;11.350;2023-05-29T11:34:54;26.40;27.90
11140;DHT22;5624;49.388;11.350;2023-05-29T11:37:22;27.00;28.10
11140;DHT22;5624;49.388;11.350;2023-05-29T11:39:48;26.90;30.50
11140;DHT22;5624;49.388;11.350;2023-05-29T11:42:15;26.90;27.90
11140;DHT22;5624;49.388;11.350;2023-05-29T11:44:40;27.10;27.10
11140;DHT22;5624;49.388;11.350;2023-05-29T11:47:07;27.00;29.70
11140;DHT22;5624;49.388;11.350;2023-05-29T11:49:34;27.10;28.30
11140;DHT22;5624;49.388;11.350;2023-05-29T11:52:09;27.30;27.30
11140;DHT22;5624;49.388;11.350;2023-05-29T11:54:36;27.50;28.80
11140;DHT22;5624;49.388;11.350;2023-05-29T11:57:02;26.90;26.80
11140;DHT22;5624;49.388;11.350;2023-05-29T11:59:31;26.40;27.00
11140;DHT22;5624;49.388;11.350;2023-05-29T12:01:56;26.20;28.40
11140;DHT22;5624;49.388;11.350;2023-05-29T12:04:22;26.30;27.60
11140;DHT22;5624;49.388;11.350;2023-05-29T12:06:48;26.00;27.10
11140;DHT22;5624;49.388;11.350;2023-05-29T12:09:29;25.70;26.20
11140;DHT22;5624;49.388;11.350;2023-05-29T12:12:02;25.50;27.20
11140;DHT22;5624;49.388;11.350;2023-05-29T12:14:28;25.60;28.80
11140;DHT22;5624;49.388;11.350;2023-05-29T12:16:53;25.50;26.90
11140;DHT22;5624;49.388;11.350;2023-05-29T12:19:19;25.60;27.30
11140;DHT22;5624;49.388;11.350;2023-05-29T12:21:45;25.50;28.20
11140;DHT22;5624;49.388;11.350;2023-05-29T12:24:11;25.70;28.70
11140;DHT22;5624;49.388;11.350;2023-05-29T12:26:36;25.40;25.80
11140;DHT22;5624;49.388;11.350;2023-05-29T12:29:03;25.30;29.70
11140;DHT22;5624;49.388;11.350;2023-05-29T12:31:30;25.50;28.80
11140;DHT22;5624;49.388;11.350;2023-05-29T12:34:08;26.00;27.20
11140;DHT22;5624;49.388;11.350;2023-05-29T12:36:34;26.00;26.30
11140;DHT22;5624;49.388;11.350;2023-05-29T12:38:59;26.10;27.90
11140;DHT22;5624;49.388;11.350;2023-05-29T12:41:33;26.00;25.10
11140;DHT22;5624;49.388;11.350;2023-05-29T12:44:01;25.80;26.30
11140;DHT22;5624;49.388;11.350;2023-05-29T12:46:34;25.70;25.80
11140;DHT22;5624;49.388;11.350;2023-05-29T12:49:17;25.30;28.50
11140;DHT22;5624;49.388;11.350;2023-05-29T12:51:48;25.30;27.40
11140;DHT22;5624;49.388;11.350;2023-05-29T12:54:16;25.30;26.40
11140;DHT22;5624;49.388;11.350;2023-05-29T12:56:42;25.10;25.90
11140;DHT22;5624;49.388;11.350;2023-05-29T12:59:08;25.30;27.30
11140;DHT22;5624;49.388;11.350;2023-05-29T13:01:34;25.80;27.30
11140;DHT22;5624;49.388;11.350;2023-05-29T13:04:00;26.00;27.20
11140;DHT22;5624;49.388;11.350;2023-05-29T13:06:26;26.10;25.70
11140;DHT22;5624;49.388;11.350;2023-05-29T13:08:51;26.00;26.30
11140;DHT22;5624;49.388;11.350;2023-05-29T13:11:17;25.50;25.40
11140;DHT22;5624;49.388;11.350;2023-05-29T13:13:43;25.30;26.30
11140;DHT22;5624;49.388;11.350;2023-05-29T13:16:09;25.30;26.60
11140;DHT22;5624;49.388;11.350;2023-05-29T13:18:34;25.10;26.30
11140;DHT22;5624;49.388;11.350;2023-05-29T13:21:00;25.10;26.70
11140;DHT22;5624;49.388;11.350;2023-05-29T13:23:26;25.00;28.60
11140;DHT22;5624;49.388;11.350;2023-05-29T13:25:51;24.90;27.40
11140;DHT22;5624;49.388;11.350;2023-05-29T13:28:17;24.80;27.70
11140;DHT22;5624;49.388;11.350;2023-05-29T13:30:43;24.80;27.30
11140;DHT22;5624;49.388;11.350;2023-05-29T13:33:09;24.70;27.10
11140;DHT22;5624;49.388;11.350;2023-05-29T13:35:35;25.00;30.10
11140;DHT22;5624;49.388;11.350;2023-05-29T13:38:00;24.90;26.40
11140;DHT22;5624;49.388;11.350;2023-05-29T13:40:26;24.80;26.20
11140;DHT22;5624;49.388;11.350;2023-05-29T13:42:52;24.70;27.40
11140;DHT22;5624;49.388;11.350;2023-05-29T13:45:17;24.70;28.00
11140;DHT22;5624;49.388;11.350;2023-05-29T13:47:43;24.60;26.70
11140;DHT22;5624;49.388;11.350;2023-05-29T13:50:09;24.60;29.60
11140;DHT22;5624;49.388;11.350;2023-05-29T13:52:34;24.80;27.30
11140;DHT22;5624;49.388;11.350;2023-05-29T13:55:00;24.70;27.30
11140;DHT22;5624;49.388;11.350;2023-05-29T13:57:31;24.70;27.40
11140;DHT22;5624;49.388;11.350;2023-05-29T13:59:57;24.80;28.70
11140;DHT22;5624;49.388;11.350;2023-05-29T14:02:23;24.70;26.60
11140;DHT22;5624;49.388;11.350;2023-05-29T14:04:50;24.70;27.10
11140;DHT22;5624;49.388;11.350;2023-05-29T14:07:16;24.50;26.60
11140;DHT22;5624;49.388;11.350;2023-05-29T14:09:41;24.40;26.30
11140;DHT22;5624;49.388;11.350;2023-05-29T14:12:07;24.20;26.60
11140;DHT22;5624;49.388;11.350;2023-05-29T14:14:33;24.10;27.10
11140;DHT22;5624;49.388;11.350;2023-05-29T14:17:00;24.10;27.20
11140;DHT22;5624;49.388;11.350;2023-05-29T14:19:25;24.10;26.80
11140;DHT22;5624;49.388;11.350;2023-05-29T14:21:51;24.10;27.30
11140;DHT22;5624;49.388;11.350;2023-05-29T14:24:17;24.10;26.90
11140;DHT22;5624;49.388;11.350;2023-05-29T14:26:44;24.20;26.80
11140;DHT22;5624;49.388;11.350;2023-05-29T14:29:12;24.20;27.80
11140;DHT22;5624;49.388;11.350;2023-05-29T14:31:41;24.40;27.90
11140;DHT22;5624;49.388;11.350;2023-05-29T14:34:07;24.50;26.90
11140;DHT22;5624;49.388;11.350;2023-05-29T14:36:33;24.60;27.20
11140;DHT22;5624;49.388;11.350;2023-05-29T14:38:58;24.60;27.90
11140;DHT22;5624;49.388;11.350;2023-05-29T14:41:24;24.50;28.70
11140;DHT22;5624;49.388;11.350;2023-05-29T14:43:51;24.60;28.40
11140;DHT22;5624;49.388;11.350;2023-05-29T14:46:17;24.60;28.10
11140;DHT22;5624;49.388;11.350;2023-05-29T14:48:42;24.60;27.60
11140;DHT22;5624;49.388;11.350;2023-05-29T14:51:08;24.50;27.30
11140;DHT22;5624;49.388;11.350;2023-05-29T14:53:35;24.50;26.60
11140;DHT22;5624;49.388;11.350;2023-05-29T14:56:01;24.20;26.20
11140;DHT22;5624;49.388;11.350;2023-05-29T14:58:26;24.20;26.50
11140;DHT22;5624;49.388;11.350;2023-05-29T15:00:53;24.10;26.70
11140;DHT22;5624;49.388;11.350;2023-05-29T15:03:18;24.20;27.30
11140;DHT22;5624;49.388;11.350;2023-05-29T15:05:44;24.20;26.50
11140;DHT22;5624;49.388;11.350;2023-05-29T15:08:09;24.10;27.40
11140;DHT22;5624;49.388;11.350;2023-05-29T15:10:35;24.10;26.70
11140;DHT22;5624;49.388;11.350;2023-05-29T15:13:00;24.10;27.40
11140;DHT22;5624;49.388;11.350;2023-05-29T15:15:29;24.10;26.90
11140;DHT22;5624;49.388;11.350;2023-05-29T15:17:55;24.20;28.60
11140;DHT22;5624;49.388;11.350;2023-05-29T15:20:25;24.20;26.50
11140;DHT22;5624;49.388;11.350;2023-05-29T15:22:51;24.00;25.40
11140;DHT22;5624;49.388;11.350;2023-05-29T15:25:19;24.00;27.30
11140;DHT22;5624;49.388;11.350;2023-05-29T15:27:46;24.00;26.30
11140;DHT22;5624;49.388;11.350;2023-05-29T15:30:13;24.00;27.50
11140;DHT22;5624;49.388;11.350;2023-05-29T15:32:41;24.00;26.40
11140;DHT22;5624;49.388;11.350;2023-05-29T15:35:11;23.90;28.10
11140;DHT22;5624;49.388;11.350;2023-05-29T15:37:37;23.90;26.70
11140;DHT22;5624;49.388;11.350;2023-05-29T15:40:03;23.90;27.30
11140;DHT22;5624;49.388;11.350;2023-05-29T15:42:29;23.80;27.00
11140;DHT22;5624;49.388;11.350;2023-05-29T15:44:55;23.90;28.10
11140;DHT22;5624;49.388;11.350;2023-05-29T15:47:21;23.80;27.30
11140;DHT22;5624;49.388;11.350;2023-05-29T15:49:46;23.80;27.20
11140;DHT22;5624;49.388;11.350;2023-05-29T15:52:13;23.90;28.10
11140;DHT22;5624;49.388;11.350;2023-05-29T15:54:39;23.90;27.90